createdAt,value
2022-09-15T00:04:34.522Z,13.94
2022-09-15T00:09:35.930Z,13.82
2022-09-15T00:14:37.180Z,13.86
2022-09-15T00:19:39.053Z,13.85
2022-09-15T00:24:41.469Z,13.84
2022-09-15T00:29:43.172Z,13.80
2022-09-15T00:34:44.582Z,13.73
2022-09-15T00:39:45.839Z,13.67
2022-09-15T00:44:49.951Z,13.71
2022-09-15T00:49:59.012Z,13.49
2022-09-15T00:55:03.747Z,13.54
2022-09-15T01:00:11.113Z,13.40
2022-09-15T01:05:15.388Z,13.33
2022-09-15T01:10:27.774Z,13.38
2022-09-15T01:16:01.531Z,13.28
2022-09-15T01:21:24.672Z,13.23
2022-09-15T01:26:44.109Z,13.19
2022-09-15T01:32:13.123Z,13.22
2022-09-15T01:37:20.928Z,13.09
2022-09-15T01:42:24.905Z,13.15
2022-09-15T01:47:29.788Z,13.11
2022-09-15T01:52:32.256Z,12.99
2022-09-15T01:57:33.736Z,12.95
2022-09-15T02:02:42.539Z,13.06
2022-09-15T02:07:48.918Z,13.00
2022-09-15T02:12:59.841Z,12.83
2022-09-15T02:18:03.776Z,13.04
2022-09-15T02:23:11.377Z,13.02
2022-09-15T02:28:15.993Z,13.02
2022-09-15T02:33:20.950Z,13.07
2022-09-15T02:38:23.002Z,13.07
2022-09-15T02:43:24.405Z,13.11
2022-09-15T02:48:25.752Z,13.19
2022-09-15T02:53:27.111Z,13.13
2022-09-15T02:58:28.733Z,13.26
2022-09-15T03:03:31.977Z,13.34
2022-09-15T03:08:33.472Z,13.48
2022-09-15T03:13:34.794Z,13.48
2022-09-15T03:18:36.838Z,13.52
2022-09-15T03:23:38.226Z,13.48
2022-09-15T03:28:39.850Z,13.53
2022-09-15T03:33:41.263Z,13.48
2022-09-15T03:38:42.532Z,13.59
2022-09-15T03:43:43.853Z,13.68
2022-09-15T03:48:45.401Z,13.69
2022-09-15T03:53:46.754Z,13.70
2022-09-15T03:58:48.011Z,13.73
2022-09-15T04:03:51.359Z,13.74
2022-09-15T04:08:54.201Z,13.75
2022-09-15T04:13:56.221Z,13.83
2022-09-15T04:18:57.915Z,13.85
2022-09-15T04:23:59.371Z,13.90
2022-09-15T04:29:04.600Z,13.94
2022-09-15T04:34:06.407Z,13.97
2022-09-15T04:39:07.650Z,14.06
2022-09-15T04:44:09.111Z,14.14
2022-09-15T04:49:10.366Z,14.12
2022-09-15T04:54:11.713Z,14.20
2022-09-15T04:59:14.682Z,14.17
2022-09-15T05:04:16.052Z,14.18
2022-09-15T05:09:17.359Z,14.20
2022-09-15T05:14:18.828Z,14.18
2022-09-15T05:19:20.270Z,14.23
2022-09-15T05:24:21.791Z,14.25
2022-09-15T05:29:23.203Z,14.26
2022-09-15T05:34:24.461Z,14.27
2022-09-15T05:39:25.795Z,14.23
2022-09-15T05:44:27.108Z,14.29
2022-09-15T05:49:29.421Z,14.33
2022-09-15T05:54:30.763Z,14.37
2022-09-15T05:59:33.248Z,14.39
2022-09-15T06:04:34.746Z,14.45
2022-09-15T06:09:36.120Z,14.44
2022-09-15T06:14:37.437Z,14.53
2022-09-15T06:19:38.862Z,14.42
2022-09-15T06:24:40.257Z,14.55
2022-09-15T06:29:41.600Z,14.56
2022-09-15T06:34:42.897Z,14.59
2022-09-15T06:39:44.569Z,14.57
2022-09-15T06:44:45.905Z,14.67
2022-09-15T06:49:47.184Z,14.69
2022-09-15T06:54:49.773Z,14.73
2022-09-15T06:59:51.225Z,14.82
2022-09-15T07:04:52.567Z,14.85
2022-09-15T07:09:53.804Z,14.93
2022-09-15T07:14:55.171Z,15.01
2022-09-15T07:19:56.581Z,15.12
2022-09-15T07:24:57.915Z,15.13
2022-09-15T07:29:59.166Z,15.22
2022-09-15T07:35:01.719Z,15.38
2022-09-15T07:40:03.568Z,15.42
2022-09-15T07:45:05.491Z,15.36
2022-09-15T07:50:07.242Z,15.45
2022-09-15T07:55:09.416Z,15.53
2022-09-15T08:00:11.477Z,15.70
2022-09-15T08:05:12.835Z,15.73
2022-09-15T08:10:14.283Z,15.89
2022-09-15T08:15:15.636Z,15.79
2022-09-15T08:20:17.330Z,16.01
2022-09-15T08:25:18.746Z,16.17
2022-09-15T08:30:21.219Z,16.19
2022-09-15T08:35:23.364Z,16.23
2022-09-15T08:40:36.720Z,16.42
2022-09-15T08:45:53.163Z,16.48
2022-09-15T08:50:57.988Z,16.66
2022-09-15T08:56:05.434Z,16.72
2022-09-15T09:01:21.747Z,16.69
2022-09-15T09:06:58.366Z,16.73
2022-09-15T09:12:27.413Z,16.91
2022-09-15T09:17:46.729Z,16.92
2022-09-15T09:22:52.194Z,17.00
2022-09-15T09:27:54.218Z,17.08
2022-09-15T09:33:23.945Z,17.14
2022-09-15T09:38:36.458Z,17.20
2022-09-15T09:43:38.233Z,17.17
2022-09-15T09:48:43.220Z,17.27
2022-09-15T09:53:53.377Z,17.17
2022-09-15T09:58:54.897Z,17.23
2022-09-15T10:04:19.568Z,17.26
2022-09-15T10:09:20.977Z,17.34
2022-09-15T10:14:38.410Z,17.41
2022-09-15T10:19:42.534Z,17.27
2022-09-15T10:24:44.335Z,17.53
2022-09-15T10:29:46.149Z,17.41
2022-09-15T10:34:48.800Z,17.55
2022-09-15T10:39:55.743Z,17.42
2022-09-15T10:45:09.581Z,17.48
2022-09-15T10:50:26.805Z,17.43
2022-09-15T10:55:52.199Z,17.00
2022-09-15T11:01:18.797Z,16.58
2022-09-15T11:06:26.538Z,16.56
2022-09-15T11:11:36.216Z,16.26
2022-09-15T11:17:12.314Z,16.24
2022-09-15T11:22:39.050Z,16.53
2022-09-15T11:27:50.871Z,16.64
2022-09-15T11:33:20.394Z,16.72
2022-09-15T11:38:30.637Z,16.82
2022-09-15T11:43:46.012Z,17.02
2022-09-15T11:48:57.292Z,17.20
2022-09-15T11:54:04.921Z,17.27
2022-09-15T11:59:17.189Z,17.38
2022-09-15T12:04:41.826Z,17.34
2022-09-15T12:09:43.295Z,17.38
2022-09-15T12:14:46.610Z,17.33
2022-09-15T12:20:14.162Z,17.33
2022-09-15T12:25:26.585Z,17.28
2022-09-15T12:30:41.533Z,17.25
2022-09-15T12:35:42.867Z,17.20
2022-09-15T12:40:44.285Z,17.25
2022-09-15T12:46:01.759Z,17.25
2022-09-15T12:51:05.606Z,17.30
2022-09-15T12:56:11.550Z,17.39
2022-09-15T13:01:19.407Z,17.41
2022-09-15T13:06:25.202Z,17.47
2022-09-15T13:11:50.125Z,17.57
2022-09-15T13:16:54.764Z,17.59
2022-09-15T13:22:11.358Z,17.61
2022-09-15T13:27:16.469Z,17.62
2022-09-15T13:32:33.066Z,17.66
2022-09-15T13:38:08.170Z,17.73
2022-09-15T13:43:10.989Z,17.73
2022-09-15T13:48:27.414Z,17.80
2022-09-15T13:53:47.432Z,17.90
2022-09-15T13:59:01.715Z,17.93
2022-09-15T14:04:17.492Z,18.00
2022-09-15T14:09:20.202Z,18.04
2022-09-15T14:14:27.354Z,18.06
2022-09-15T14:19:33.279Z,18.08
2022-09-15T14:24:40.068Z,18.11
2022-09-15T14:29:43.229Z,18.10
2022-09-15T14:34:45.634Z,18.15
2022-09-15T14:39:57.364Z,18.14
2022-09-15T14:50:33.796Z,18.18
2022-09-15T14:55:45.037Z,18.17
2022-09-15T15:00:57.403Z,18.10
2022-09-15T15:06:27.684Z,18.00
2022-09-15T15:11:27.840Z,17.94
2022-09-15T15:16:31.122Z,17.99
2022-09-15T15:21:43.834Z,18.07
2022-09-15T15:26:50.240Z,18.07
2022-09-15T15:31:51.874Z,18.05
2022-09-15T15:37:02.557Z,17.99
2022-09-15T15:42:08.443Z,17.96
2022-09-15T15:47:12.774Z,17.96
2022-09-15T15:52:14.162Z,17.84
2022-09-15T15:57:28.080Z,17.91
2022-09-15T16:02:30.314Z,17.79
2022-09-15T16:07:33.495Z,17.79
2022-09-15T16:12:35.549Z,17.73
2022-09-15T16:17:37.037Z,17.64
2022-09-15T16:22:40.522Z,17.65
2022-09-15T16:27:41.967Z,17.56
2022-09-15T16:32:43.420Z,17.54
2022-09-15T16:37:44.830Z,17.48
2022-09-15T16:42:47.702Z,17.41
2022-09-15T16:47:49.120Z,17.37
2022-09-15T16:52:51.631Z,17.29
2022-09-15T16:57:53.041Z,17.23
2022-09-15T17:02:54.420Z,17.32
2022-09-15T17:07:55.885Z,17.21
2022-09-15T17:12:57.591Z,17.22
2022-09-15T17:17:59.032Z,17.13
2022-09-15T17:23:01.701Z,17.05
2022-09-15T17:28:03.140Z,16.99
2022-09-15T17:33:12.071Z,16.97
2022-09-15T17:38:14.557Z,16.94
2022-09-15T17:43:19.558Z,16.96
2022-09-15T17:48:22.447Z,16.92
2022-09-15T17:53:28.145Z,16.86
2022-09-15T17:58:31.304Z,16.73
2022-09-15T18:03:35.205Z,16.77
2022-09-15T18:08:36.765Z,16.70
2022-09-15T18:13:38.193Z,16.67
2022-09-15T18:18:41.092Z,16.63
2022-09-15T18:23:42.553Z,16.58
2022-09-15T18:28:44.154Z,16.45
2022-09-15T18:33:45.668Z,16.48
2022-09-15T18:38:47.087Z,16.46
2022-09-15T18:43:51.609Z,16.35
2022-09-15T18:48:53.041Z,16.40
2022-09-15T18:53:54.717Z,16.33
2022-09-15T18:58:56.195Z,16.24
2022-09-15T19:03:57.875Z,16.23
2022-09-15T19:08:59.369Z,16.16
2022-09-15T19:14:00.916Z,16.06
2022-09-15T19:19:02.446Z,16.10
2022-09-15T19:24:04.044Z,16.11
2022-09-15T19:29:06.476Z,16.09
2022-09-15T19:34:08.102Z,16.00
2022-09-15T19:39:12.073Z,15.96
2022-09-15T19:44:13.517Z,15.87
2022-09-15T19:49:15.248Z,15.85
2022-09-15T19:54:16.709Z,15.78
2022-09-15T19:59:19.608Z,15.70
2022-09-15T20:04:21.071Z,15.59
2022-09-15T20:09:22.703Z,15.60
2022-09-15T20:14:24.313Z,15.57
2022-09-15T20:19:25.777Z,15.55
2022-09-15T20:24:27.141Z,15.50
2022-09-15T20:29:28.736Z,15.42
2022-09-15T20:34:30.225Z,15.42
2022-09-15T20:39:31.603Z,15.41
2022-09-15T20:44:33.000Z,15.27
2022-09-15T20:49:34.419Z,15.29
2022-09-15T20:54:35.805Z,15.23
2022-09-15T20:59:37.294Z,15.19
2022-09-15T21:04:38.711Z,15.21
2022-09-15T21:09:40.113Z,15.18
2022-09-15T21:14:41.497Z,15.19
2022-09-15T21:19:43.083Z,15.16
2022-09-15T21:24:44.586Z,15.11
2022-09-15T21:29:46.171Z,14.97
2022-09-15T21:34:47.555Z,15.04
2022-09-15T21:39:48.922Z,15.01
2022-09-15T21:44:50.848Z,14.85
2022-09-15T21:49:52.252Z,14.89
2022-09-15T21:55:41.402Z,14.88
2022-09-15T22:00:42.836Z,14.83
2022-09-15T22:05:46.142Z,14.80
2022-09-15T22:10:47.473Z,14.76
2022-09-15T22:15:48.718Z,14.76
2022-09-15T22:20:50.321Z,14.77
2022-09-15T22:25:51.664Z,14.71
2022-09-15T22:30:56.471Z,14.70
2022-09-15T22:35:57.977Z,14.65
2022-09-15T22:41:14.455Z,14.64
2022-09-15T22:46:17.849Z,14.54
2022-09-15T22:51:19.250Z,14.53
2022-09-15T22:56:20.740Z,14.55
2022-09-15T23:01:27.903Z,14.53
2022-09-15T23:06:32.003Z,14.48
2022-09-15T23:11:34.176Z,14.50
2022-09-15T23:16:35.852Z,14.50
2022-09-15T23:21:37.243Z,14.41
2022-09-15T23:26:38.721Z,14.48
2022-09-15T23:31:40.214Z,14.47
2022-09-15T23:36:41.687Z,14.43
2022-09-15T23:41:43.449Z,14.44
2022-09-15T23:46:44.907Z,14.45
2022-09-15T23:51:46.267Z,14.34
2022-09-15T23:56:47.618Z,14.37
